createdAt,value
2018-08-24T00:03:56.643Z,1.57
2018-08-24T00:07:59.393Z,1.90
2018-08-24T00:12:02.101Z,1.50
2018-08-24T00:16:04.870Z,1.50
2018-08-24T00:20:07.945Z,1.70
2018-08-24T00:24:11.687Z,1.53
2018-08-24T00:28:14.411Z,1.30
2018-08-24T00:32:17.103Z,1.13
2018-08-24T00:36:20.391Z,1.23
2018-08-24T00:40:23.091Z,1.37
2018-08-24T00:44:25.787Z,1.10
2018-08-24T00:48:28.429Z,1.47
2018-08-24T00:52:31.306Z,1.73
2018-08-24T00:56:33.995Z,1.50
2018-08-24T01:00:43.243Z,1.20
2018-08-24T01:04:52.076Z,2.30
2018-08-24T01:08:54.962Z,1.70
2018-08-24T01:12:57.664Z,2.43
2018-08-24T01:17:05.956Z,2.97
2018-08-24T01:21:08.734Z,2.73
2018-08-24T01:25:11.384Z,2.23
2018-08-24T01:29:14.077Z,2.50
2018-08-24T01:33:17.265Z,2.93
2018-08-24T01:37:19.969Z,3.40
2018-08-24T01:41:22.765Z,2.00
2018-08-24T01:45:25.476Z,3.90
2018-08-24T01:49:28.137Z,3.57
2018-08-24T01:53:30.808Z,4.07
2018-08-24T01:57:33.415Z,3.10
2018-08-24T02:01:36.150Z,3.37
2018-08-24T02:05:38.818Z,2.87
2018-08-24T02:09:41.468Z,3.47
2018-08-24T02:13:49.771Z,3.60
2018-08-24T02:17:58.164Z,2.70
2018-08-24T02:22:07.552Z,2.93
2018-08-24T02:26:10.212Z,2.93
2018-08-24T02:30:12.891Z,2.97
2018-08-24T02:34:15.603Z,2.27
2018-08-24T02:38:18.206Z,3.30
2018-08-24T02:42:20.854Z,2.47
2018-08-24T02:46:23.489Z,3.37
2018-08-24T02:50:26.137Z,4.23
2018-08-24T02:54:28.700Z,4.73
2018-08-24T02:58:31.356Z,3.93
2018-08-24T03:02:34.040Z,4.73
2018-08-24T03:06:36.630Z,3.67
2018-08-24T03:10:39.333Z,4.20
2018-08-24T03:14:41.959Z,3.70
2018-08-24T03:18:44.566Z,3.80
2018-08-24T03:22:47.235Z,4.10
2018-08-24T03:26:50.169Z,3.67
2018-08-24T03:30:52.913Z,5.00
2018-08-24T03:34:55.570Z,4.03
2018-08-24T03:38:58.219Z,4.63
2018-08-24T03:43:00.852Z,5.20
2018-08-24T03:47:03.495Z,3.87
2018-08-24T03:51:06.175Z,4.33
2018-08-24T03:55:08.833Z,5.07
2018-08-24T03:59:11.455Z,4.07
2018-08-24T04:03:14.170Z,4.10
2018-08-24T04:07:16.846Z,3.63
2018-08-24T04:11:19.491Z,4.80
2018-08-24T04:15:22.287Z,4.00
2018-08-24T04:19:26.305Z,4.80
2018-08-24T04:23:28.948Z,4.87
2018-08-24T04:27:31.595Z,3.90
2018-08-24T04:31:34.352Z,4.10
2018-08-24T04:35:36.998Z,5.87
2018-08-24T04:39:39.716Z,6.97
2018-08-24T04:43:42.295Z,6.60
2018-08-24T04:47:44.906Z,9.20
2018-08-24T04:51:47.571Z,10.60
2018-08-24T04:55:50.406Z,10.60
2018-08-24T04:59:53.025Z,11.97
2018-08-24T05:03:55.746Z,13.47
2018-08-24T05:07:58.431Z,11.93
2018-08-24T05:12:01.189Z,14.73
2018-08-24T05:16:03.849Z,12.63
2018-08-24T05:20:06.600Z,15.17
2018-08-24T05:24:09.188Z,14.63
2018-08-24T05:28:11.878Z,16.57
2018-08-24T05:32:14.529Z,17.40
2018-08-24T05:36:17.200Z,17.97
2018-08-24T05:40:19.897Z,23.60
2018-08-24T05:44:22.577Z,24.53
2018-08-24T05:48:25.244Z,24.87
2018-08-24T05:52:27.862Z,26.33
2018-08-24T05:56:30.418Z,22.83
2018-08-24T06:00:40.559Z,24.67
2018-08-24T06:04:43.307Z,21.27
2018-08-24T06:08:50.549Z,27.37
2018-08-24T06:12:53.204Z,29.80
2018-08-24T06:17:01.417Z,21.53
2018-08-24T06:21:04.108Z,28.93
2018-08-24T06:25:06.739Z,29.17
2018-08-24T06:29:09.378Z,32.77
2018-08-24T06:33:12.040Z,29.37
2018-08-24T06:37:15.054Z,29.63
2018-08-24T06:41:17.807Z,32.90
2018-08-24T06:45:20.442Z,32.50
2018-08-24T06:49:23.048Z,30.20
2018-08-24T06:53:26.694Z,33.87
2018-08-24T06:57:29.410Z,33.80
2018-08-24T07:01:31.973Z,27.33
2018-08-24T07:05:34.620Z,29.90
2018-08-24T07:09:39.049Z,26.37
2018-08-24T07:13:41.663Z,31.70
2018-08-24T07:17:49.840Z,30.33
2018-08-24T07:21:52.566Z,30.57
2018-08-24T07:25:55.247Z,30.27
2018-08-24T07:29:57.907Z,29.97
2018-08-24T07:34:00.593Z,29.03
2018-08-24T07:38:03.317Z,28.13
2018-08-24T07:42:06.055Z,30.23
2018-08-24T07:46:15.401Z,27.97
2018-08-24T07:50:18.036Z,27.73
2018-08-24T07:54:20.798Z,25.87
2018-08-24T07:58:23.532Z,24.90
2018-08-24T08:02:31.652Z,34.07
2018-08-24T08:06:34.388Z,24.23
2018-08-24T08:10:41.159Z,22.23
2018-08-24T08:14:49.486Z,20.53
2018-08-24T08:18:52.177Z,14.53
2018-08-24T08:22:54.865Z,11.93
2018-08-24T08:26:57.541Z,11.10
2018-08-24T08:31:00.246Z,10.53
2018-08-24T08:35:02.931Z,9.00
2018-08-24T08:39:08.560Z,7.37
2018-08-24T08:43:11.401Z,6.23
2018-08-24T08:47:14.130Z,5.97
2018-08-24T08:51:16.831Z,5.27
2018-08-24T08:55:19.563Z,5.20
2018-08-24T08:59:22.243Z,4.10
2018-08-24T09:03:24.920Z,7.13
2018-08-24T09:07:28.434Z,4.53
2018-08-24T09:11:31.101Z,4.73
2018-08-24T09:15:33.747Z,3.90
2018-08-24T09:19:42.096Z,3.93
2018-08-24T09:23:50.429Z,3.70
2018-08-24T09:27:58.855Z,3.70
2018-08-24T09:32:02.160Z,6.10
2018-08-24T09:36:10.436Z,5.23
2018-08-24T09:40:13.228Z,4.60
2018-08-24T09:44:15.940Z,3.03
2018-08-24T09:48:24.142Z,3.90
2018-08-24T09:52:27.322Z,3.67
2018-08-24T09:56:31.050Z,3.07
2018-08-24T10:00:39.461Z,2.87
2018-08-24T10:04:47.684Z,2.60
2018-08-24T10:08:50.449Z,12.57
2018-08-24T10:12:53.122Z,3.20
2018-08-24T10:16:55.847Z,3.27
2018-08-24T10:20:58.523Z,2.80
2018-08-24T10:25:01.818Z,2.20
2018-08-24T10:29:05.955Z,3.30
2018-08-24T10:33:08.985Z,2.83
2018-08-24T10:37:11.752Z,2.80
2018-08-24T10:41:14.391Z,2.87
2018-08-24T10:45:17.533Z,2.30
2018-08-24T10:49:20.361Z,2.97
2018-08-24T10:53:22.982Z,3.60
2018-08-24T10:57:27.337Z,3.57
2018-08-24T11:01:32.251Z,4.27
2018-08-24T11:05:34.875Z,3.53
2018-08-24T11:09:37.496Z,7.93
2018-08-24T11:13:40.107Z,2.30
2018-08-24T11:17:48.607Z,1.90
2018-08-24T11:21:51.729Z,2.03
2018-08-24T11:25:54.326Z,1.80
2018-08-24T11:29:56.949Z,2.30
2018-08-24T11:33:59.583Z,1.63
2018-08-24T11:38:02.227Z,1.77
2018-08-24T11:42:04.838Z,1.10
2018-08-24T11:46:07.421Z,1.20
2018-08-24T11:50:10.187Z,1.23
2018-08-24T11:54:12.907Z,1.50
2018-08-24T11:58:15.503Z,2.23
2018-08-24T12:02:18.373Z,1.60
2018-08-24T12:06:21.499Z,1.50
2018-08-24T12:10:24.423Z,1.60
2018-08-24T12:14:27.035Z,1.40
2018-08-24T12:18:29.781Z,1.57
2018-08-24T12:22:32.276Z,1.83
2018-08-24T12:26:34.995Z,1.27
2018-08-24T12:30:37.712Z,1.63
2018-08-24T12:34:40.255Z,1.77
2018-08-24T12:38:43.216Z,1.83
2018-08-24T12:42:45.840Z,1.40
2018-08-24T12:46:48.426Z,1.77
2018-08-24T12:50:51.039Z,1.40
2018-08-24T12:54:53.608Z,1.20
2018-08-24T12:58:56.243Z,1.30
2018-08-24T13:02:58.834Z,1.50
2018-08-24T13:07:01.397Z,1.40
2018-08-24T13:11:04.144Z,0.93
2018-08-24T13:15:06.816Z,1.43
2018-08-24T13:19:09.340Z,2.10
2018-08-24T13:23:12.012Z,1.60
2018-08-24T13:27:14.609Z,1.53
2018-08-24T13:31:17.328Z,1.60
2018-08-24T13:35:19.986Z,1.57
2018-08-24T13:39:22.580Z,1.80
2018-08-24T13:43:25.282Z,1.77
2018-08-24T13:47:28.085Z,1.90
2018-08-24T13:51:30.640Z,1.60
2018-08-24T13:55:33.237Z,1.47
2018-08-24T13:59:35.805Z,1.90
2018-08-24T14:03:38.381Z,1.80
2018-08-24T14:07:40.992Z,1.83
2018-08-24T14:11:43.587Z,1.73
2018-08-24T14:15:46.143Z,1.70
2018-08-24T14:19:48.735Z,2.03
2018-08-24T14:23:51.388Z,3.60
2018-08-24T14:27:53.983Z,1.63
2018-08-24T14:31:56.549Z,1.83
2018-08-24T14:35:59.105Z,1.80
2018-08-24T14:40:01.718Z,1.27
2018-08-24T14:44:04.356Z,2.07
2018-08-24T14:48:06.952Z,1.73
2018-08-24T14:52:09.985Z,1.60
2018-08-24T14:56:12.540Z,1.70
2018-08-24T15:00:15.123Z,1.80
2018-08-24T15:04:17.779Z,1.67
2018-08-24T15:08:20.724Z,1.60
2018-08-24T15:12:23.345Z,1.70
2018-08-24T15:16:25.967Z,2.70
2018-08-24T15:20:28.543Z,1.87
2018-08-24T15:24:31.208Z,1.60
2018-08-24T15:28:33.813Z,1.50
2018-08-24T15:32:36.371Z,1.27
2018-08-24T15:36:38.908Z,1.50
2018-08-24T15:40:41.463Z,1.20
2018-08-24T15:44:43.991Z,1.47
2018-08-24T15:48:46.563Z,1.30
2018-08-24T15:52:49.159Z,1.30
2018-08-24T15:56:51.668Z,1.30
2018-08-24T16:00:54.297Z,2.00
2018-08-24T16:04:56.994Z,1.77
2018-08-24T16:13:08.727Z,1.70
2018-08-24T16:17:11.400Z,1.30
2018-08-24T16:21:14.021Z,1.33
2018-08-24T16:25:16.663Z,2.00
2018-08-24T16:29:19.230Z,1.53
2018-08-24T16:33:21.881Z,1.50
2018-08-24T16:37:24.445Z,1.20
2018-08-24T16:41:26.963Z,1.27
2018-08-24T16:45:29.506Z,1.40
2018-08-24T16:49:32.067Z,2.40
2018-08-24T16:53:34.651Z,1.40
2018-08-24T16:57:37.312Z,1.40
2018-08-24T17:01:39.968Z,1.07
2018-08-24T17:05:43.033Z,1.10
2018-08-24T17:09:45.753Z,1.13
2018-08-24T17:13:48.705Z,1.10
2018-08-24T17:17:51.347Z,1.00
2018-08-24T17:21:54.878Z,1.60
2018-08-24T17:25:57.467Z,1.40
2018-08-24T17:30:00.112Z,1.40
2018-08-24T17:34:02.717Z,3.53
2018-08-24T17:38:05.708Z,1.40
2018-08-24T17:42:08.407Z,1.03
2018-08-24T17:46:11.157Z,1.63
2018-08-24T17:50:13.814Z,1.10
2018-08-24T17:54:16.480Z,1.63
2018-08-24T17:58:19.087Z,1.20
2018-08-24T18:02:21.772Z,1.27
2018-08-24T18:06:24.640Z,1.80
2018-08-24T18:10:27.382Z,1.43
2018-08-24T18:14:30.644Z,1.10
2018-08-24T18:18:33.845Z,1.57
2018-08-24T18:22:36.463Z,1.20
2018-08-24T18:26:39.287Z,1.20
2018-08-24T18:30:42.144Z,1.33
2018-08-24T18:34:44.761Z,5.27
2018-08-24T18:38:47.465Z,1.20
2018-08-24T18:42:50.043Z,1.60
2018-08-24T18:46:52.632Z,1.47
2018-08-24T18:50:55.217Z,0.93
2018-08-24T18:54:57.830Z,1.50
2018-08-24T18:59:00.428Z,1.43
2018-08-24T19:03:03.126Z,1.10
2018-08-24T19:07:06.456Z,1.13
2018-08-24T19:11:14.693Z,1.17
2018-08-24T19:15:17.243Z,1.03
2018-08-24T19:19:25.547Z,1.10
2018-08-24T19:23:28.119Z,1.30
2018-08-24T19:27:36.205Z,1.17
2018-08-24T19:31:38.823Z,1.10
2018-08-24T19:35:41.455Z,1.13
2018-08-24T19:40:48.450Z,1.10
2018-08-24T19:44:51.459Z,1.13
2018-08-24T19:48:59.831Z,1.47
2018-08-24T19:53:02.573Z,1.30
2018-08-24T19:57:11.177Z,1.30
2018-08-24T20:01:13.748Z,1.40
2018-08-24T20:05:16.561Z,0.90
2018-08-24T20:09:26.137Z,1.50
2018-08-24T20:13:28.879Z,1.33
2018-08-24T20:17:32.217Z,1.93
2018-08-24T20:21:34.831Z,1.20
2018-08-24T20:25:37.383Z,1.20
2018-08-24T20:29:40.053Z,1.60
2018-08-24T20:33:42.789Z,1.07
2018-08-24T20:37:45.627Z,1.43
2018-08-24T20:41:48.240Z,1.00
2018-08-24T20:45:50.816Z,1.30
2018-08-24T20:49:53.576Z,1.27
2018-08-24T20:53:56.195Z,1.20
2018-08-24T20:57:58.867Z,1.20
2018-08-24T21:02:01.539Z,1.73
2018-08-24T21:06:04.189Z,1.30
2018-08-24T21:10:07.012Z,1.47
2018-08-24T21:14:09.681Z,1.30
2018-08-24T21:18:12.327Z,1.17
2018-08-24T21:22:14.950Z,1.20
2018-08-24T21:26:17.522Z,1.03
2018-08-24T21:30:20.425Z,1.20
2018-08-24T21:34:22.938Z,1.00
2018-08-24T21:38:25.551Z,1.63
2018-08-24T21:42:28.223Z,1.13
2018-08-24T21:46:30.827Z,1.30
2018-08-24T21:50:33.508Z,1.33
2018-08-24T21:54:36.087Z,1.50
2018-08-24T21:58:38.758Z,1.37
2018-08-24T22:02:41.800Z,1.83
2018-08-24T22:06:44.455Z,1.37
2018-08-24T22:10:47.123Z,1.50
2018-08-24T22:14:49.715Z,1.80
2018-08-24T22:18:52.284Z,2.00
2018-08-24T22:22:55.119Z,1.80
2018-08-24T22:26:57.678Z,1.93
2018-08-24T22:31:00.271Z,2.07
2018-08-24T22:35:02.860Z,1.90
2018-08-24T22:39:06.991Z,1.27
2018-08-24T22:43:15.190Z,1.90
2018-08-24T22:47:17.784Z,1.60
2018-08-24T22:51:20.320Z,1.47
2018-08-24T22:55:22.899Z,1.50
2018-08-24T22:59:25.564Z,2.03
2018-08-24T23:03:28.230Z,2.00
2018-08-24T23:07:30.845Z,2.30
2018-08-24T23:11:33.450Z,2.50
2018-08-24T23:15:36.039Z,2.13
2018-08-24T23:19:38.752Z,2.03
2018-08-24T23:23:41.267Z,2.20
2018-08-24T23:27:43.878Z,3.00
2018-08-24T23:31:46.517Z,2.50
2018-08-24T23:35:49.089Z,2.40
2018-08-24T23:39:51.663Z,1.97
2018-08-24T23:43:54.303Z,2.00
2018-08-24T23:47:56.913Z,1.97
2018-08-24T23:51:59.491Z,2.97
2018-08-24T23:56:02.068Z,1.70
